createdAt,value
2019-02-10T00:00:31.518Z,4.88
2019-02-10T00:03:01.616Z,4.94
2019-02-10T00:05:31.713Z,4.98
2019-02-10T00:08:01.812Z,5.05
2019-02-10T00:10:31.928Z,5.04
2019-02-10T00:13:28.001Z,5.01
2019-02-10T00:15:58.527Z,5.01
2019-02-10T00:18:28.633Z,4.98
2019-02-10T00:20:58.730Z,4.82
2019-02-10T00:23:28.840Z,4.91
2019-02-10T00:25:58.951Z,4.92
2019-02-10T00:28:29.040Z,4.91
2019-02-10T00:30:59.138Z,5.01
2019-02-10T00:33:29.247Z,4.94
2019-02-10T00:35:59.340Z,5.04
2019-02-10T00:38:29.474Z,4.99
2019-02-10T00:40:59.591Z,5.05
2019-02-10T00:43:29.712Z,4.97
2019-02-10T00:45:59.807Z,5.07
2019-02-10T00:48:30.044Z,4.95
2019-02-10T00:51:00.185Z,5.04
2019-02-10T00:53:30.268Z,5.08
2019-02-10T00:56:00.365Z,4.89
2019-02-10T00:58:30.579Z,4.88
2019-02-10T01:01:00.685Z,4.93
2019-02-10T01:03:30.774Z,5.00
2019-02-10T01:06:00.946Z,5.10
2019-02-10T01:08:32.109Z,5.09
2019-02-10T01:11:02.220Z,5.02
2019-02-10T01:13:32.374Z,5.13
2019-02-10T01:16:02.491Z,4.98
2019-02-10T01:18:32.593Z,4.97
2019-02-10T01:21:05.300Z,4.94
2019-02-10T01:23:35.419Z,5.03
2019-02-10T01:26:05.506Z,4.98
2019-02-10T01:28:35.612Z,5.11
2019-02-10T01:31:05.721Z,5.08
2019-02-10T01:33:35.796Z,4.97
2019-02-10T01:36:05.903Z,5.00
2019-02-10T01:38:36.010Z,5.02
2019-02-10T01:41:06.097Z,5.00
2019-02-10T01:43:36.186Z,5.04
2019-02-10T01:46:06.990Z,5.05
2019-02-10T01:48:37.092Z,5.04
2019-02-10T01:51:07.189Z,5.05
2019-02-10T01:53:38.376Z,5.12
2019-02-10T01:56:08.479Z,5.13
2019-02-10T01:58:38.581Z,5.13
2019-02-10T02:01:08.671Z,5.16
2019-02-10T02:03:38.775Z,5.27
2019-02-10T02:06:08.858Z,5.32
2019-02-10T02:08:38.965Z,5.33
2019-02-10T02:11:09.076Z,5.35
2019-02-10T02:13:39.179Z,5.25
2019-02-10T02:16:09.281Z,5.26
2019-02-10T02:18:40.188Z,5.36
2019-02-10T02:21:10.381Z,5.39
2019-02-10T02:23:40.451Z,5.42
2019-02-10T02:26:10.769Z,5.33
2019-02-10T02:28:40.872Z,5.47
2019-02-10T02:31:11.034Z,5.42
2019-02-10T02:33:41.134Z,5.50
2019-02-10T02:36:11.241Z,5.39
2019-02-10T02:38:41.338Z,5.44
2019-02-10T02:41:11.485Z,5.44
2019-02-10T02:43:41.603Z,5.38
2019-02-10T02:46:11.753Z,5.31
2019-02-10T02:48:41.848Z,5.36
2019-02-10T02:51:12.047Z,5.44
2019-02-10T02:53:42.180Z,5.46
2019-02-10T02:56:12.237Z,5.41
2019-02-10T02:58:42.352Z,5.43
2019-02-10T03:01:12.447Z,5.44
2019-02-10T03:03:42.558Z,5.45
2019-02-10T03:06:12.670Z,5.51
2019-02-10T03:08:42.750Z,5.51
2019-02-10T03:11:12.904Z,5.50
2019-02-10T03:13:43.116Z,5.46
2019-02-10T03:16:13.211Z,5.39
2019-02-10T03:18:43.311Z,5.46
2019-02-10T03:21:13.457Z,5.50
2019-02-10T03:23:43.582Z,5.50
2019-02-10T03:26:13.693Z,5.42
2019-02-10T03:28:43.800Z,5.39
2019-02-10T03:31:13.916Z,5.57
2019-02-10T03:33:44.056Z,5.51
2019-02-10T03:36:14.137Z,5.49
2019-02-10T03:38:44.256Z,5.57
2019-02-10T03:41:14.345Z,5.50
2019-02-10T03:43:45.153Z,5.44
2019-02-10T03:46:15.256Z,5.42
2019-02-10T03:48:46.194Z,5.50
2019-02-10T03:51:16.307Z,5.45
2019-02-10T03:53:46.359Z,5.50
2019-02-10T03:56:16.468Z,5.36
2019-02-10T03:58:46.595Z,5.34
2019-02-10T04:01:19.545Z,5.40
2019-02-10T04:03:49.758Z,5.39
2019-02-10T04:06:19.878Z,5.36
2019-02-10T04:08:49.982Z,5.44
2019-02-10T04:11:20.129Z,5.44
2019-02-10T04:13:50.586Z,5.38
2019-02-10T04:16:20.697Z,5.42
2019-02-10T04:18:50.795Z,5.46
2019-02-10T04:21:20.900Z,5.44
2019-02-10T04:23:51.024Z,5.46
2019-02-10T04:26:21.124Z,5.56
2019-02-10T04:28:51.214Z,5.59
2019-02-10T04:31:21.339Z,5.57
2019-02-10T04:33:51.436Z,5.62
2019-02-10T04:36:21.545Z,5.66
2019-02-10T04:38:51.647Z,5.64
2019-02-10T04:41:21.743Z,5.69
2019-02-10T04:43:51.976Z,5.76
2019-02-10T04:46:22.084Z,5.79
2019-02-10T04:48:52.190Z,5.78
2019-02-10T04:51:22.278Z,5.85
2019-02-10T04:53:52.383Z,5.80
2019-02-10T04:56:22.485Z,5.90
2019-02-10T04:58:52.599Z,5.92
2019-02-10T05:01:22.728Z,5.88
2019-02-10T05:03:53.811Z,5.88
2019-02-10T05:06:23.906Z,5.85
2019-02-10T05:08:53.994Z,5.83
2019-02-10T05:11:24.093Z,5.82
2019-02-10T05:13:54.204Z,5.78
2019-02-10T05:16:24.326Z,5.75
2019-02-10T05:18:54.449Z,5.77
2019-02-10T05:21:24.545Z,5.71
2019-02-10T05:24:02.744Z,5.69
2019-02-10T05:26:26.464Z,5.58
2019-02-10T05:28:56.578Z,5.61
2019-02-10T05:31:26.680Z,5.60
2019-02-10T05:33:56.795Z,5.70
2019-02-10T05:36:26.915Z,5.69
2019-02-10T05:38:57.018Z,5.66
2019-02-10T05:41:27.114Z,5.71
2019-02-10T05:43:57.224Z,5.68
2019-02-10T05:46:27.333Z,5.70
2019-02-10T05:48:57.448Z,5.63
2019-02-10T05:51:27.560Z,5.60
2019-02-10T05:53:57.675Z,5.62
2019-02-10T05:56:27.771Z,5.72
2019-02-10T05:58:57.889Z,5.57
2019-02-10T06:01:58.905Z,5.66
2019-02-10T06:04:31.895Z,5.68
2019-02-10T06:07:04.616Z,5.63
2019-02-10T06:09:34.734Z,5.62
2019-02-10T06:12:04.863Z,5.56
2019-02-10T06:14:34.970Z,5.53
2019-02-10T06:17:05.173Z,5.61
2019-02-10T06:19:35.266Z,5.59
2019-02-10T06:22:05.396Z,5.48
2019-02-10T06:24:35.525Z,5.62
2019-02-10T06:27:05.734Z,5.54
2019-02-10T06:29:35.872Z,5.53
2019-02-10T06:32:05.989Z,5.45
2019-02-10T06:34:36.127Z,5.43
2019-02-10T06:37:06.289Z,5.39
2019-02-10T06:39:36.400Z,5.46
2019-02-10T06:42:06.506Z,5.46
2019-02-10T06:44:36.916Z,5.38
2019-02-10T06:47:07.027Z,5.38
2019-02-10T06:49:37.148Z,5.44
2019-02-10T06:52:07.308Z,5.40
2019-02-10T06:54:45.253Z,5.28
2019-02-10T06:57:15.351Z,5.41
2019-02-10T06:59:50.566Z,5.37
2019-02-10T07:02:36.577Z,5.37
2019-02-10T07:05:08.405Z,5.35
2019-02-10T07:07:38.603Z,5.32
2019-02-10T07:10:08.743Z,5.36
2019-02-10T07:12:49.710Z,5.34
2019-02-10T07:16:15.203Z,5.38
2019-02-10T07:19:21.453Z,5.42
2019-02-10T07:21:51.993Z,5.36
2019-02-10T07:24:45.645Z,5.31
2019-02-10T07:27:24.878Z,5.33
2019-02-10T07:30:35.856Z,5.32
2019-02-10T07:33:40.477Z,5.33
2019-02-10T07:36:37.937Z,5.43
2019-02-10T07:39:40.454Z,5.48
2019-02-10T07:42:43.655Z,5.39
2019-02-10T07:45:39.478Z,5.37
2019-02-10T07:48:38.006Z,5.39
2019-02-10T07:51:37.633Z,5.36
2019-02-10T07:55:01.862Z,5.43
2019-02-10T07:57:54.889Z,5.41
2019-02-10T08:00:50.233Z,5.54
2019-02-10T08:04:06.003Z,5.56
2019-02-10T08:07:15.978Z,5.51
2019-02-10T08:10:38.514Z,5.52
2019-02-10T08:13:39.950Z,5.62
2019-02-10T08:16:28.514Z,5.61
2019-02-10T08:19:43.735Z,5.69
2019-02-10T08:22:51.715Z,5.69
2019-02-10T08:25:52.755Z,5.73
2019-02-10T08:28:42.126Z,5.73
2019-02-10T08:32:07.283Z,5.79
2019-02-10T08:34:48.355Z,5.74
2019-02-10T08:37:48.588Z,5.84
2019-02-10T08:41:11.686Z,5.80
2019-02-10T08:44:21.450Z,5.73
2019-02-10T08:47:56.730Z,5.75
2019-02-10T08:50:53.782Z,5.74
2019-02-10T08:53:39.545Z,5.82
2019-02-10T08:56:09.645Z,5.97
2019-02-10T08:58:39.950Z,5.95
2019-02-10T09:01:10.355Z,5.91
2019-02-10T09:03:40.466Z,6.02
2019-02-10T09:06:10.690Z,5.97
2019-02-10T09:08:40.846Z,5.94
2019-02-10T09:11:11.054Z,5.94
2019-02-10T09:13:41.233Z,6.02
2019-02-10T09:16:11.385Z,6.05
2019-02-10T09:18:41.498Z,5.95
2019-02-10T09:21:11.639Z,6.13
2019-02-10T09:23:41.736Z,6.13
2019-02-10T09:26:11.866Z,6.07
2019-02-10T09:28:42.056Z,6.08
2019-02-10T09:31:12.176Z,6.07
2019-02-10T09:33:42.406Z,6.26
2019-02-10T09:36:12.529Z,6.15
2019-02-10T09:38:42.638Z,6.26
2019-02-10T09:41:12.888Z,6.13
2019-02-10T09:43:43.024Z,6.12
2019-02-10T09:46:13.137Z,6.25
2019-02-10T09:48:43.250Z,6.28
2019-02-10T09:51:13.421Z,6.24
2019-02-10T09:53:43.534Z,6.36
2019-02-10T09:56:13.678Z,6.41
2019-02-10T09:58:44.046Z,6.42
2019-02-10T10:01:14.815Z,6.53
2019-02-10T10:03:44.936Z,6.57
2019-02-10T10:06:15.124Z,6.63
2019-02-10T10:08:45.263Z,6.71
2019-02-10T10:11:15.621Z,6.67
2019-02-10T10:13:45.901Z,6.73
2019-02-10T10:16:16.016Z,6.86
2019-02-10T10:18:46.122Z,6.97
2019-02-10T10:21:16.223Z,6.93
2019-02-10T10:23:46.356Z,7.05
2019-02-10T10:26:16.475Z,7.06
2019-02-10T10:28:46.734Z,7.05
2019-02-10T10:31:16.845Z,7.04
2019-02-10T10:33:47.009Z,7.06
2019-02-10T10:36:17.331Z,7.05
2019-02-10T10:38:47.506Z,7.08
2019-02-10T10:41:17.668Z,7.14
2019-02-10T10:43:47.749Z,7.14
2019-02-10T10:46:17.975Z,7.14
2019-02-10T10:48:48.099Z,7.04
2019-02-10T10:51:18.293Z,7.07
2019-02-10T10:53:48.503Z,7.13
2019-02-10T10:56:18.682Z,6.98
2019-02-10T10:58:48.795Z,6.98
2019-02-10T11:01:25.162Z,7.04
2019-02-10T11:03:51.096Z,7.26
2019-02-10T11:06:21.249Z,7.12
2019-02-10T11:08:51.387Z,7.26
2019-02-10T11:11:21.499Z,7.23
2019-02-10T11:13:51.661Z,7.21
2019-02-10T11:16:21.762Z,7.32
2019-02-10T11:18:51.913Z,7.31
2019-02-10T11:21:23.221Z,7.36
2019-02-10T11:23:53.355Z,7.27
2019-02-10T11:26:23.484Z,7.37
2019-02-10T11:28:53.622Z,7.37
2019-02-10T11:31:23.749Z,7.36
2019-02-10T11:33:54.013Z,7.41
2019-02-10T11:36:24.125Z,7.39
2019-02-10T11:38:54.237Z,7.47
2019-02-10T11:41:24.340Z,7.47
2019-02-10T11:43:54.491Z,7.44
2019-02-10T11:46:24.649Z,7.36
2019-02-10T11:48:54.781Z,7.37
2019-02-10T11:51:24.896Z,7.35
2019-02-10T11:54:05.468Z,7.35
2019-02-10T11:56:35.910Z,7.35
2019-02-10T11:59:06.018Z,7.29
2019-02-10T12:01:36.114Z,7.18
2019-02-10T12:04:06.251Z,7.35
2019-02-10T12:06:36.351Z,7.30
2019-02-10T12:09:07.016Z,7.26
2019-02-10T12:11:37.142Z,7.25
2019-02-10T12:14:07.421Z,7.28
2019-02-10T12:16:37.544Z,7.22
2019-02-10T12:19:07.685Z,7.01
2019-02-10T12:21:37.882Z,6.93
2019-02-10T12:24:08.022Z,7.01
2019-02-10T12:26:38.123Z,7.05
2019-02-10T12:29:08.285Z,6.99
2019-02-10T12:31:38.366Z,6.92
2019-02-10T12:34:08.501Z,6.89
2019-02-10T12:36:38.605Z,7.16
2019-02-10T12:39:09.370Z,7.26
2019-02-10T12:41:39.461Z,7.48
2019-02-10T12:44:09.618Z,7.57
2019-02-10T12:46:39.748Z,7.49
2019-02-10T12:49:09.889Z,7.43
2019-02-10T12:51:40.010Z,7.51
2019-02-10T12:54:10.126Z,7.53
2019-02-10T12:56:40.242Z,7.46
2019-02-10T12:59:10.372Z,7.37
2019-02-10T13:01:40.549Z,7.42
2019-02-10T13:04:10.659Z,7.29
2019-02-10T13:06:40.766Z,7.30
2019-02-10T13:09:13.965Z,7.31
2019-02-10T13:11:44.107Z,7.50
2019-02-10T13:14:14.302Z,7.47
2019-02-10T13:16:44.402Z,7.57
2019-02-10T13:19:14.775Z,7.58
2019-02-10T13:21:44.898Z,7.47
2019-02-10T13:24:15.013Z,7.47
2019-02-10T13:26:45.130Z,7.52
2019-02-10T13:29:15.329Z,7.43
2019-02-10T13:31:46.356Z,7.46
2019-02-10T13:34:16.471Z,7.36
2019-02-10T13:36:46.577Z,7.46
2019-02-10T13:39:17.129Z,7.38
2019-02-10T13:41:45.566Z,7.19
2019-02-10T13:44:15.672Z,7.38
2019-02-10T13:46:45.821Z,7.37
2019-02-10T13:49:15.906Z,7.31
2019-02-10T13:51:46.030Z,7.35
2019-02-10T13:54:16.118Z,7.30
2019-02-10T13:56:46.221Z,7.26
2019-02-10T13:59:16.443Z,7.26
2019-02-10T14:01:46.571Z,7.19
2019-02-10T14:04:16.714Z,7.18
2019-02-10T14:06:46.844Z,7.03
2019-02-10T14:09:17.153Z,7.13
2019-02-10T14:11:49.335Z,7.03
2019-02-10T14:14:19.614Z,6.97
2019-02-10T14:16:49.702Z,6.95
2019-02-10T14:19:19.809Z,6.90
2019-02-10T14:21:49.908Z,6.90
2019-02-10T14:24:20.110Z,6.87
2019-02-10T14:26:50.254Z,6.90
2019-02-10T14:29:20.658Z,6.79
2019-02-10T14:31:50.820Z,6.68
2019-02-10T14:34:20.992Z,6.74
2019-02-10T14:36:51.314Z,6.72
2019-02-10T14:39:21.423Z,6.66
2019-02-10T14:41:51.594Z,6.67
2019-02-10T14:44:21.979Z,6.67
2019-02-10T14:46:52.129Z,6.66
2019-02-10T14:49:22.227Z,6.59
2019-02-10T14:51:52.575Z,6.57
2019-02-10T14:54:22.821Z,6.33
2019-02-10T14:56:52.973Z,6.30
2019-02-10T14:59:23.067Z,6.26
2019-02-10T15:01:53.188Z,6.29
2019-02-10T15:04:23.458Z,6.18
2019-02-10T15:06:53.567Z,6.18
2019-02-10T15:09:23.684Z,6.21
2019-02-10T15:11:53.806Z,6.21
2019-02-10T15:14:23.983Z,6.15
2019-02-10T15:16:54.086Z,6.21
2019-02-10T15:19:24.172Z,6.12
2019-02-10T15:21:54.774Z,6.03
2019-02-10T15:24:24.969Z,5.88
2019-02-10T15:26:55.107Z,5.93
2019-02-10T15:29:25.227Z,5.88
2019-02-10T15:31:55.468Z,5.86
2019-02-10T15:34:25.566Z,5.79
2019-02-10T15:36:55.666Z,5.75
2019-02-10T15:39:25.807Z,5.71
2019-02-10T15:41:55.916Z,5.69
2019-02-10T15:44:26.115Z,5.67
2019-02-10T15:46:56.314Z,5.79
2019-02-10T15:49:26.727Z,5.87
2019-02-10T15:51:56.852Z,5.74
2019-02-10T15:54:27.075Z,5.76
2019-02-10T15:56:57.242Z,5.87
2019-02-10T15:59:27.339Z,5.78
2019-02-10T16:01:57.466Z,5.79
2019-02-10T16:04:27.586Z,5.70
2019-02-10T16:06:57.710Z,5.81
2019-02-10T16:09:27.806Z,5.60
2019-02-10T16:11:57.930Z,5.53
2019-02-10T16:14:28.046Z,5.64
2019-02-10T16:16:58.445Z,5.65
2019-02-10T16:19:28.868Z,5.69
2019-02-10T16:21:58.962Z,5.65
2019-02-10T16:24:29.075Z,5.73
2019-02-10T16:26:59.178Z,5.50
2019-02-10T16:29:29.387Z,5.52
2019-02-10T16:31:59.602Z,5.61
2019-02-10T16:34:29.912Z,5.61
2019-02-10T16:37:01.951Z,5.71
2019-02-10T16:39:32.077Z,5.72
2019-02-10T16:42:03.034Z,5.60
2019-02-10T16:44:33.256Z,5.63
2019-02-10T16:47:03.604Z,5.63
2019-02-10T16:49:34.103Z,5.58
2019-02-10T16:52:04.608Z,5.61
2019-02-10T16:54:34.719Z,5.59
2019-02-10T16:57:04.903Z,5.47
2019-02-10T16:59:35.129Z,5.57
2019-02-10T17:02:05.707Z,5.57
2019-02-10T17:04:35.821Z,5.60
2019-02-10T17:07:06.091Z,5.61
2019-02-10T17:09:36.436Z,5.44
2019-02-10T17:12:06.562Z,5.55
2019-02-10T17:14:36.806Z,5.52
2019-02-10T17:17:06.907Z,5.53
2019-02-10T17:19:37.024Z,5.55
2019-02-10T17:22:07.222Z,5.57
2019-02-10T17:24:37.348Z,5.51
2019-02-10T17:27:07.478Z,5.55
2019-02-10T17:29:37.591Z,5.55
2019-02-10T17:32:07.691Z,5.51
2019-02-10T17:34:37.838Z,5.45
2019-02-10T17:37:09.539Z,5.45
2019-02-10T17:39:40.043Z,5.46
2019-02-10T17:42:10.324Z,5.46
2019-02-10T17:44:40.443Z,5.39
2019-02-10T17:47:10.623Z,5.38
2019-02-10T17:49:40.725Z,5.45
2019-02-10T17:52:10.849Z,5.38
2019-02-10T17:54:40.966Z,5.42
2019-02-10T17:57:11.103Z,5.41
2019-02-10T17:59:41.203Z,5.35
2019-02-10T18:02:11.336Z,5.33
2019-02-10T18:04:41.429Z,5.32
2019-02-10T18:07:11.576Z,5.32
2019-02-10T18:09:41.755Z,5.30
2019-02-10T18:12:11.893Z,5.17
2019-02-10T18:15:10.945Z,5.08
2019-02-10T18:17:47.760Z,5.16
2019-02-10T18:20:37.162Z,5.06
2019-02-10T18:23:29.632Z,5.09
2019-02-10T18:26:21.813Z,5.11
2019-02-10T18:29:13.642Z,5.10
2019-02-10T18:32:01.513Z,5.05
2019-02-10T18:34:53.673Z,5.03
2019-02-10T18:37:42.807Z,5.06
2019-02-10T18:40:23.189Z,5.08
2019-02-10T18:43:15.063Z,4.88
2019-02-10T18:46:11.080Z,4.92
2019-02-10T18:49:01.312Z,4.90
2019-02-10T18:51:39.424Z,4.77
2019-02-10T18:54:38.314Z,4.59
2019-02-10T18:57:27.420Z,3.30
2019-02-10T19:00:12.888Z,4.58
2019-02-10T19:02:52.183Z,4.64
2019-02-10T19:05:28.856Z,4.67
2019-02-10T19:08:15.445Z,4.75
2019-02-10T19:11:01.718Z,4.74
2019-02-10T19:13:54.030Z,4.76
2019-02-10T19:16:52.264Z,4.76
2019-02-10T19:19:40.732Z,4.71
2019-02-10T19:22:31.187Z,4.69
2019-02-10T19:25:10.692Z,4.67
2019-02-10T19:28:03.066Z,4.75
2019-02-10T19:30:54.477Z,4.77
2019-02-10T19:34:02.129Z,4.77
2019-02-10T19:37:01.456Z,4.63
2019-02-10T19:39:42.108Z,4.60
2019-02-10T19:42:30.034Z,4.55
2019-02-10T19:45:17.969Z,4.60
2019-02-10T19:48:25.652Z,4.56
2019-02-10T19:51:15.069Z,4.63
2019-02-10T19:54:00.461Z,4.65
2019-02-10T19:56:59.070Z,4.68
2019-02-10T19:59:44.683Z,4.67
2019-02-10T20:02:46.189Z,4.66
2019-02-10T20:05:25.303Z,4.65
2019-02-10T20:08:21.711Z,4.61
2019-02-10T20:11:16.699Z,4.61
2019-02-10T20:14:00.804Z,4.63
2019-02-10T20:16:50.044Z,4.52
2019-02-10T20:19:30.737Z,4.51
2019-02-10T20:22:19.856Z,4.57
2019-02-10T20:25:12.568Z,4.65
2019-02-10T20:28:00.811Z,4.66
2019-02-10T20:30:53.324Z,4.69
2019-02-10T20:33:32.436Z,4.73
2019-02-10T20:36:21.753Z,4.76
2019-02-10T20:39:05.983Z,4.64
2019-02-10T20:42:01.261Z,4.67
2019-02-10T20:44:47.805Z,4.64
2019-02-10T20:47:36.900Z,4.60
2019-02-10T20:50:39.561Z,4.64
2019-02-10T20:53:28.655Z,4.67
2019-02-10T20:56:20.838Z,4.71
2019-02-10T20:59:02.393Z,4.74
2019-02-10T21:01:54.566Z,4.73
2019-02-10T21:04:43.736Z,4.74
2019-02-10T21:07:48.231Z,4.77
2019-02-10T21:10:31.305Z,4.77
2019-02-10T21:13:32.995Z,4.64
2019-02-10T21:16:22.145Z,4.66
2019-02-10T21:19:26.631Z,4.70
2019-02-10T21:22:08.591Z,4.74
2019-02-10T21:25:04.395Z,4.78
2019-02-10T21:27:48.458Z,4.79
2019-02-10T21:30:28.882Z,4.73
2019-02-10T21:33:16.963Z,4.72
2019-02-10T21:36:01.059Z,4.60
2019-02-10T21:38:56.744Z,4.41
2019-02-10T21:41:34.203Z,4.22
2019-02-10T21:44:26.592Z,4.32
2019-02-10T21:47:11.683Z,4.28
2019-02-10T21:49:41.879Z,4.07
2019-02-10T21:52:11.993Z,4.14
2019-02-10T21:54:42.116Z,4.04
2019-02-10T21:57:13.116Z,3.82
2019-02-10T21:59:43.216Z,3.92
2019-02-10T22:02:13.327Z,3.99
2019-02-10T22:04:43.418Z,4.03
2019-02-10T22:07:13.549Z,4.01
2019-02-10T22:09:43.733Z,3.95
2019-02-10T22:12:13.836Z,3.95
2019-02-10T22:14:43.939Z,3.97
2019-02-10T22:17:14.063Z,3.96
2019-02-10T22:19:44.183Z,3.97
2019-02-10T22:22:14.302Z,3.98
2019-02-10T22:24:44.409Z,4.04
2019-02-10T22:27:14.543Z,3.95
2019-02-10T22:29:44.626Z,4.03
2019-02-10T22:32:14.717Z,4.11
2019-02-10T22:34:44.819Z,4.19
2019-02-10T22:37:14.925Z,4.21
2019-02-10T22:39:45.030Z,4.28
2019-02-10T22:42:15.255Z,4.32
2019-02-10T22:44:45.344Z,4.36
2019-02-10T22:47:15.450Z,4.35
2019-02-10T22:49:45.548Z,4.30
2019-02-10T22:52:15.667Z,4.21
2019-02-10T22:54:45.780Z,4.22
2019-02-10T22:57:15.897Z,4.27
2019-02-10T22:59:46.994Z,4.32
2019-02-10T23:02:17.119Z,4.36
2019-02-10T23:04:47.226Z,4.33
2019-02-10T23:07:17.342Z,3.50
2019-02-10T23:09:47.448Z,4.13
2019-02-10T23:12:17.562Z,4.11
2019-02-10T23:14:47.663Z,4.10
2019-02-10T23:17:17.782Z,4.10
2019-02-10T23:19:47.897Z,4.10
2019-02-10T23:22:18.002Z,4.12
2019-02-10T23:24:48.276Z,4.12
2019-02-10T23:27:18.371Z,4.13
2019-02-10T23:29:48.476Z,4.14
2019-02-10T23:32:18.635Z,4.16
2019-02-10T23:34:48.728Z,4.15
2019-02-10T23:37:18.849Z,4.12
2019-02-10T23:39:48.951Z,4.05
2019-02-10T23:42:19.135Z,3.97
2019-02-10T23:44:49.240Z,3.93
2019-02-10T23:47:19.346Z,3.92
2019-02-10T23:49:49.493Z,3.96
2019-02-10T23:52:19.611Z,3.98
2019-02-10T23:54:49.708Z,3.98
2019-02-10T23:57:19.869Z,3.95
2019-02-10T23:59:50.009Z,3.90
